sensor_id;sensor_type;location;lat;lon;timestamp;P1;durP1;ratioP1;P2;durP2;ratioP2
35644;SDS011;21764;52.042;6.830;2023-05-29T00:00:33;28.90;;;5.85;;
35644;SDS011;21764;52.042;6.830;2023-05-29T00:05:33;29.20;;;5.35;;
35644;SDS011;21764;52.042;6.830;2023-05-29T00:10:34;24.40;;;5.28;;
35644;SDS011;21764;52.042;6.830;2023-05-29T00:15:37;34.72;;;5.55;;
35644;SDS011;21764;52.042;6.830;2023-05-29T00:20:37;23.15;;;4.53;;
35644;SDS011;21764;52.042;6.830;2023-05-29T00:25:38;28.00;;;5.45;;
35644;SDS011;21764;52.042;6.830;2023-05-29T00:30:40;25.27;;;5.03;;
35644;SDS011;21764;52.042;6.830;2023-05-29T00:35:40;25.20;;;5.93;;
35644;SDS011;21764;52.042;6.830;2023-05-29T00:40:41;36.65;;;5.78;;
35644;SDS011;21764;52.042;6.830;2023-05-29T00:45:42;33.38;;;5.60;;
35644;SDS011;21764;52.042;6.830;2023-05-29T00:50:43;28.08;;;5.63;;
35644;SDS011;21764;52.042;6.830;2023-05-29T00:55:44;34.65;;;5.43;;
35644;SDS011;21764;52.042;6.830;2023-05-29T01:00:45;39.28;;;5.90;;
35644;SDS011;21764;52.042;6.830;2023-05-29T01:05:46;32.58;;;5.70;;
35644;SDS011;21764;52.042;6.830;2023-05-29T01:10:46;39.78;;;5.50;;
35644;SDS011;21764;52.042;6.830;2023-05-29T01:32:25;38.72;;;5.53;;
35644;SDS011;21764;52.042;6.830;2023-05-29T01:37:26;41.97;;;6.22;;
35644;SDS011;21764;52.042;6.830;2023-05-29T01:42:27;37.83;;;5.88;;
35644;SDS011;21764;52.042;6.830;2023-05-29T01:47:29;36.05;;;5.82;;
35644;SDS011;21764;52.042;6.830;2023-05-29T01:52:31;40.22;;;5.78;;
35644;SDS011;21764;52.042;6.830;2023-05-29T01:57:32;43.95;;;6.00;;
35644;SDS011;21764;52.042;6.830;2023-05-29T02:02:35;41.78;;;5.85;;
35644;SDS011;21764;52.042;6.830;2023-05-29T02:07:37;29.90;;;6.13;;
35644;SDS011;21764;52.042;6.830;2023-05-29T02:12:38;29.40;;;6.00;;
35644;SDS011;21764;52.042;6.830;2023-05-29T02:17:39;33.08;;;6.88;;
35644;SDS011;21764;52.042;6.830;2023-05-29T02:22:41;34.67;;;5.78;;
35644;SDS011;21764;52.042;6.830;2023-05-29T02:27:42;42.35;;;6.45;;
35644;SDS011;21764;52.042;6.830;2023-05-29T02:32:42;42.10;;;6.68;;
35644;SDS011;21764;52.042;6.830;2023-05-29T02:37:44;40.90;;;5.70;;
35644;SDS011;21764;52.042;6.830;2023-05-29T02:54:15;35.80;;;5.90;;
35644;SDS011;21764;52.042;6.830;2023-05-29T02:59:16;28.08;;;5.22;;
35644;SDS011;21764;52.042;6.830;2023-05-29T03:04:17;43.88;;;6.10;;
35644;SDS011;21764;52.042;6.830;2023-05-29T03:09:18;41.95;;;5.97;;
35644;SDS011;21764;52.042;6.830;2023-05-29T03:14:38;44.40;;;7.70;;
35644;SDS011;21764;52.042;6.830;2023-05-29T03:20:43;45.45;;;5.93;;
35644;SDS011;21764;52.042;6.830;2023-05-29T03:26:11;38.95;;;7.05;;
35644;SDS011;21764;52.042;6.830;2023-05-29T03:37:41;42.85;;;5.82;;
35644;SDS011;21764;52.042;6.830;2023-05-29T03:49:19;37.92;;;5.88;;
35644;SDS011;21764;52.042;6.830;2023-05-29T03:54:19;38.47;;;5.85;;
35644;SDS011;21764;52.042;6.830;2023-05-29T03:59:20;30.63;;;5.47;;
35644;SDS011;21764;52.042;6.830;2023-05-29T04:04:20;35.28;;;4.85;;
35644;SDS011;21764;52.042;6.830;2023-05-29T04:09:21;29.05;;;4.50;;
35644;SDS011;21764;52.042;6.830;2023-05-29T04:14:22;29.05;;;4.88;;
35644;SDS011;21764;52.042;6.830;2023-05-29T04:19:22;32.67;;;5.50;;
35644;SDS011;21764;52.042;6.830;2023-05-29T04:24:23;35.22;;;5.07;;
35644;SDS011;21764;52.042;6.830;2023-05-29T04:29:24;31.63;;;5.38;;
35644;SDS011;21764;52.042;6.830;2023-05-29T04:34:25;28.77;;;5.18;;
35644;SDS011;21764;52.042;6.830;2023-05-29T04:39:25;43.08;;;6.65;;
35644;SDS011;21764;52.042;6.830;2023-05-29T04:44:26;30.80;;;5.47;;
35644;SDS011;21764;52.042;6.830;2023-05-29T04:49:29;23.83;;;5.28;;
35644;SDS011;21764;52.042;6.830;2023-05-29T04:54:30;29.33;;;5.80;;
35644;SDS011;21764;52.042;6.830;2023-05-29T04:59:31;34.22;;;5.50;;
35644;SDS011;21764;52.042;6.830;2023-05-29T05:04:31;26.17;;;4.88;;
35644;SDS011;21764;52.042;6.830;2023-05-29T05:09:32;20.95;;;4.53;;
35644;SDS011;21764;52.042;6.830;2023-05-29T05:14:33;26.92;;;4.82;;
35644;SDS011;21764;52.042;6.830;2023-05-29T05:19:34;27.23;;;5.13;;
35644;SDS011;21764;52.042;6.830;2023-05-29T05:24:35;20.58;;;4.15;;
35644;SDS011;21764;52.042;6.830;2023-05-29T05:29:35;26.33;;;4.55;;
35644;SDS011;21764;52.042;6.830;2023-05-29T05:34:36;26.52;;;4.88;;
35644;SDS011;21764;52.042;6.830;2023-05-29T05:39:39;25.85;;;4.43;;
35644;SDS011;21764;52.042;6.830;2023-05-29T05:44:40;23.08;;;4.60;;
35644;SDS011;21764;52.042;6.830;2023-05-29T05:49:41;24.55;;;4.82;;
35644;SDS011;21764;52.042;6.830;2023-05-29T05:54:43;18.90;;;4.82;;
35644;SDS011;21764;52.042;6.830;2023-05-29T05:59:44;20.73;;;4.68;;
35644;SDS011;21764;52.042;6.830;2023-05-29T06:04:44;20.65;;;4.70;;
35644;SDS011;21764;52.042;6.830;2023-05-29T06:09:45;27.95;;;4.60;;
35644;SDS011;21764;52.042;6.830;2023-05-29T06:14:46;26.50;;;5.63;;
35644;SDS011;21764;52.042;6.830;2023-05-29T06:19:47;23.30;;;5.03;;
35644;SDS011;21764;52.042;6.830;2023-05-29T06:24:48;21.52;;;5.03;;
35644;SDS011;21764;52.042;6.830;2023-05-29T06:29:48;23.38;;;4.70;;
35644;SDS011;21764;52.042;6.830;2023-05-29T06:34:49;24.55;;;4.43;;
35644;SDS011;21764;52.042;6.830;2023-05-29T06:39:50;23.50;;;4.72;;
35644;SDS011;21764;52.042;6.830;2023-05-29T06:44:51;22.55;;;4.97;;
35644;SDS011;21764;52.042;6.830;2023-05-29T06:49:51;15.32;;;3.97;;
35644;SDS011;21764;52.042;6.830;2023-05-29T06:54:52;26.25;;;5.18;;
35644;SDS011;21764;52.042;6.830;2023-05-29T06:59:54;15.30;;;4.53;;
35644;SDS011;21764;52.042;6.830;2023-05-29T07:04:55;22.65;;;4.75;;
35644;SDS011;21764;52.042;6.830;2023-05-29T07:09:56;22.25;;;4.53;;
35644;SDS011;21764;52.042;6.830;2023-05-29T07:14:56;15.93;;;4.13;;
35644;SDS011;21764;52.042;6.830;2023-05-29T07:19:57;19.08;;;4.65;;
35644;SDS011;21764;52.042;6.830;2023-05-29T07:24:57;17.20;;;4.82;;
35644;SDS011;21764;52.042;6.830;2023-05-29T07:29:58;21.33;;;4.65;;
35644;SDS011;21764;52.042;6.830;2023-05-29T07:34:59;18.73;;;4.70;;
35644;SDS011;21764;52.042;6.830;2023-05-29T07:39:59;20.48;;;4.85;;
35644;SDS011;21764;52.042;6.830;2023-05-29T07:45:00;18.52;;;4.65;;
35644;SDS011;21764;52.042;6.830;2023-05-29T07:50:01;13.13;;;3.85;;
35644;SDS011;21764;52.042;6.830;2023-05-29T07:55:02;15.55;;;4.50;;
35644;SDS011;21764;52.042;6.830;2023-05-29T08:00:03;25.77;;;5.00;;
35644;SDS011;21764;52.042;6.830;2023-05-29T08:05:08;18.42;;;4.43;;
35644;SDS011;21764;52.042;6.830;2023-05-29T08:10:09;19.38;;;4.13;;
35644;SDS011;21764;52.042;6.830;2023-05-29T08:15:10;21.15;;;4.57;;
35644;SDS011;21764;52.042;6.830;2023-05-29T08:20:12;16.17;;;4.80;;
35644;SDS011;21764;52.042;6.830;2023-05-29T08:25:13;17.80;;;4.57;;
35644;SDS011;21764;52.042;6.830;2023-05-29T08:30:14;17.13;;;4.20;;
35644;SDS011;21764;52.042;6.830;2023-05-29T08:35:14;17.50;;;4.70;;
35644;SDS011;21764;52.042;6.830;2023-05-29T08:40:16;25.33;;;5.05;;
35644;SDS011;21764;52.042;6.830;2023-05-29T08:45:17;16.02;;;4.25;;
35644;SDS011;21764;52.042;6.830;2023-05-29T08:50:21;16.70;;;4.22;;
35644;SDS011;21764;52.042;6.830;2023-05-29T08:55:23;18.67;;;4.90;;
35644;SDS011;21764;52.042;6.830;2023-05-29T09:00:24;17.45;;;4.60;;
35644;SDS011;21764;52.042;6.830;2023-05-29T09:05:28;16.70;;;4.72;;
35644;SDS011;21764;52.042;6.830;2023-05-29T09:10:29;17.65;;;4.63;;
35644;SDS011;21764;52.042;6.830;2023-05-29T09:15:30;17.40;;;4.03;;
35644;SDS011;21764;52.042;6.830;2023-05-29T09:20:31;14.82;;;4.97;;
35644;SDS011;21764;52.042;6.830;2023-05-29T09:25:33;12.45;;;4.20;;
35644;SDS011;21764;52.042;6.830;2023-05-29T09:30:39;10.90;;;3.90;;
35644;SDS011;21764;52.042;6.830;2023-05-29T09:35:45;14.02;;;4.75;;
35644;SDS011;21764;52.042;6.830;2023-05-29T09:40:47;20.25;;;5.15;;
35644;SDS011;21764;52.042;6.830;2023-05-29T09:45:51;14.27;;;5.90;;
35644;SDS011;21764;52.042;6.830;2023-05-29T09:55:54;14.25;;;5.10;;
35644;SDS011;21764;52.042;6.830;2023-05-29T10:05:58;17.77;;;5.00;;
35644;SDS011;21764;52.042;6.830;2023-05-29T10:11:00;14.73;;;4.50;;
35644;SDS011;21764;52.042;6.830;2023-05-29T10:16:11;13.25;;;4.00;;
35644;SDS011;21764;52.042;6.830;2023-05-29T10:21:15;21.75;;;4.85;;
35644;SDS011;21764;52.042;6.830;2023-05-29T10:26:21;12.18;;;3.80;;
35644;SDS011;21764;52.042;6.830;2023-05-29T10:31:28;17.33;;;4.03;;
35644;SDS011;21764;52.042;6.830;2023-05-29T10:36:37;16.75;;;4.18;;
35644;SDS011;21764;52.042;6.830;2023-05-29T10:41:43;20.05;;;4.05;;
35644;SDS011;21764;52.042;6.830;2023-05-29T10:51:50;15.55;;;4.28;;
35644;SDS011;21764;52.042;6.830;2023-05-29T10:56:52;18.35;;;4.57;;
35644;SDS011;21764;52.042;6.830;2023-05-29T11:02:00;13.95;;;3.95;;
35644;SDS011;21764;52.042;6.830;2023-05-29T11:12:12;19.73;;;4.00;;
35644;SDS011;21764;52.042;6.830;2023-05-29T11:17:29;18.10;;;4.82;;
35644;SDS011;21764;52.042;6.830;2023-05-29T11:28:17;15.87;;;4.30;;
35644;SDS011;21764;52.042;6.830;2023-05-29T11:38:26;22.25;;;4.13;;
35644;SDS011;21764;52.042;6.830;2023-05-29T11:43:27;18.77;;;4.28;;
35644;SDS011;21764;52.042;6.830;2023-05-29T11:48:28;13.38;;;3.83;;
35644;SDS011;21764;52.042;6.830;2023-05-29T11:53:28;17.35;;;4.07;;
35644;SDS011;21764;52.042;6.830;2023-05-29T11:58:29;13.20;;;3.50;;
35644;SDS011;21764;52.042;6.830;2023-05-29T12:03:30;14.25;;;3.65;;
35644;SDS011;21764;52.042;6.830;2023-05-29T12:08:31;15.95;;;4.05;;
35644;SDS011;21764;52.042;6.830;2023-05-29T12:13:31;18.42;;;4.53;;
35644;SDS011;21764;52.042;6.830;2023-05-29T12:18:32;19.45;;;4.40;;
35644;SDS011;21764;52.042;6.830;2023-05-29T12:23:33;16.02;;;4.13;;
35644;SDS011;21764;52.042;6.830;2023-05-29T12:28:34;19.42;;;4.50;;
35644;SDS011;21764;52.042;6.830;2023-05-29T12:33:35;20.58;;;4.45;;
35644;SDS011;21764;52.042;6.830;2023-05-29T12:38:46;15.57;;;4.57;;
35644;SDS011;21764;52.042;6.830;2023-05-29T12:43:52;19.85;;;4.30;;
35644;SDS011;21764;52.042;6.830;2023-05-29T12:48:56;20.48;;;4.95;;
35644;SDS011;21764;52.042;6.830;2023-05-29T12:53:56;19.33;;;4.32;;
35644;SDS011;21764;52.042;6.830;2023-05-29T12:58:58;18.98;;;4.03;;
35644;SDS011;21764;52.042;6.830;2023-05-29T13:03:59;14.25;;;4.22;;
35644;SDS011;21764;52.042;6.830;2023-05-29T13:08:59;19.13;;;4.50;;
35644;SDS011;21764;52.042;6.830;2023-05-29T13:14:00;12.85;;;3.38;;
35644;SDS011;21764;52.042;6.830;2023-05-29T13:19:01;15.73;;;3.70;;
35644;SDS011;21764;52.042;6.830;2023-05-29T13:24:01;26.08;;;4.88;;
35644;SDS011;21764;52.042;6.830;2023-05-29T13:29:02;14.65;;;3.90;;
35644;SDS011;21764;52.042;6.830;2023-05-29T13:34:03;17.70;;;4.10;;
35644;SDS011;21764;52.042;6.830;2023-05-29T13:39:04;20.80;;;4.55;;
35644;SDS011;21764;52.042;6.830;2023-05-29T13:44:06;22.88;;;4.57;;
35644;SDS011;21764;52.042;6.830;2023-05-29T13:49:07;18.38;;;4.32;;
35644;SDS011;21764;52.042;6.830;2023-05-29T13:54:07;20.48;;;4.70;;
35644;SDS011;21764;52.042;6.830;2023-05-29T13:59:08;19.70;;;4.35;;
35644;SDS011;21764;52.042;6.830;2023-05-29T14:04:09;20.83;;;4.35;;
35644;SDS011;21764;52.042;6.830;2023-05-29T14:09:09;24.45;;;4.45;;
35644;SDS011;21764;52.042;6.830;2023-05-29T14:14:10;19.35;;;4.22;;
35644;SDS011;21764;52.042;6.830;2023-05-29T14:19:11;24.55;;;4.88;;
35644;SDS011;21764;52.042;6.830;2023-05-29T14:24:12;20.70;;;5.00;;
35644;SDS011;21764;52.042;6.830;2023-05-29T14:29:13;19.70;;;3.67;;
35644;SDS011;21764;52.042;6.830;2023-05-29T14:34:14;21.40;;;4.22;;
35644;SDS011;21764;52.042;6.830;2023-05-29T14:39:15;20.77;;;4.13;;
35644;SDS011;21764;52.042;6.830;2023-05-29T14:44:15;23.75;;;3.90;;
35644;SDS011;21764;52.042;6.830;2023-05-29T14:49:16;22.08;;;4.78;;
35644;SDS011;21764;52.042;6.830;2023-05-29T14:54:17;18.67;;;3.65;;
35644;SDS011;21764;52.042;6.830;2023-05-29T14:59:17;20.50;;;6.45;;
35644;SDS011;21764;52.042;6.830;2023-05-29T15:04:19;17.35;;;4.22;;
35644;SDS011;21764;52.042;6.830;2023-05-29T15:09:20;21.75;;;4.80;;
35644;SDS011;21764;52.042;6.830;2023-05-29T15:14:21;23.50;;;4.13;;
35644;SDS011;21764;52.042;6.830;2023-05-29T15:19:21;25.98;;;4.65;;
35644;SDS011;21764;52.042;6.830;2023-05-29T15:24:22;24.35;;;4.78;;
35644;SDS011;21764;52.042;6.830;2023-05-29T15:29:23;14.05;;;3.80;;
35644;SDS011;21764;52.042;6.830;2023-05-29T15:34:23;19.98;;;3.83;;
35644;SDS011;21764;52.042;6.830;2023-05-29T15:39:24;20.30;;;4.28;;
35644;SDS011;21764;52.042;6.830;2023-05-29T15:44:25;20.13;;;3.55;;
35644;SDS011;21764;52.042;6.830;2023-05-29T15:49:26;23.40;;;4.55;;
35644;SDS011;21764;52.042;6.830;2023-05-29T15:54:27;14.82;;;4.53;;
35644;SDS011;21764;52.042;6.830;2023-05-29T15:59:30;17.30;;;4.40;;
35644;SDS011;21764;52.042;6.830;2023-05-29T16:04:31;17.88;;;4.40;;
35644;SDS011;21764;52.042;6.830;2023-05-29T16:09:31;21.48;;;5.38;;
35644;SDS011;21764;52.042;6.830;2023-05-29T16:14:32;19.48;;;4.03;;
35644;SDS011;21764;52.042;6.830;2023-05-29T16:19:33;17.65;;;4.10;;
35644;SDS011;21764;52.042;6.830;2023-05-29T16:24:34;22.00;;;5.30;;
35644;SDS011;21764;52.042;6.830;2023-05-29T16:29:34;17.38;;;3.67;;
35644;SDS011;21764;52.042;6.830;2023-05-29T16:34:35;22.52;;;6.78;;
35644;SDS011;21764;52.042;6.830;2023-05-29T16:39:37;14.30;;;4.25;;
35644;SDS011;21764;52.042;6.830;2023-05-29T16:44:37;14.85;;;3.88;;
35644;SDS011;21764;52.042;6.830;2023-05-29T16:49:38;17.27;;;3.90;;
35644;SDS011;21764;52.042;6.830;2023-05-29T16:54:40;15.15;;;4.00;;
35644;SDS011;21764;52.042;6.830;2023-05-29T16:59:41;20.33;;;4.00;;
35644;SDS011;21764;52.042;6.830;2023-05-29T17:04:42;12.85;;;3.75;;
35644;SDS011;21764;52.042;6.830;2023-05-29T17:09:43;17.27;;;3.42;;
35644;SDS011;21764;52.042;6.830;2023-05-29T17:14:44;15.20;;;3.13;;
35644;SDS011;21764;52.042;6.830;2023-05-29T17:19:44;13.05;;;4.03;;
35644;SDS011;21764;52.042;6.830;2023-05-29T17:24:45;19.33;;;4.13;;
35644;SDS011;21764;52.042;6.830;2023-05-29T17:29:46;16.70;;;3.80;;
35644;SDS011;21764;52.042;6.830;2023-05-29T17:34:46;14.27;;;3.90;;
35644;SDS011;21764;52.042;6.830;2023-05-29T17:39:47;18.95;;;3.58;;
35644;SDS011;21764;52.042;6.830;2023-05-29T17:44:48;14.98;;;3.35;;
35644;SDS011;21764;52.042;6.830;2023-05-29T17:49:48;17.50;;;4.13;;
35644;SDS011;21764;52.042;6.830;2023-05-29T17:54:49;13.18;;;3.20;;
35644;SDS011;21764;52.042;6.830;2023-05-29T17:59:50;14.20;;;3.35;;
35644;SDS011;21764;52.042;6.830;2023-05-29T18:04:51;19.75;;;4.28;;
35644;SDS011;21764;52.042;6.830;2023-05-29T18:09:52;18.00;;;3.72;;
35644;SDS011;21764;52.042;6.830;2023-05-29T18:14:52;16.10;;;3.08;;
35644;SDS011;21764;52.042;6.830;2023-05-29T18:19:53;17.30;;;3.45;;
35644;SDS011;21764;52.042;6.830;2023-05-29T18:24:54;19.00;;;3.47;;
35644;SDS011;21764;52.042;6.830;2023-05-29T18:29:56;19.58;;;3.72;;
35644;SDS011;21764;52.042;6.830;2023-05-29T18:34:56;18.48;;;3.72;;
35644;SDS011;21764;52.042;6.830;2023-05-29T18:39:57;22.45;;;3.58;;
35644;SDS011;21764;52.042;6.830;2023-05-29T18:44:58;18.58;;;3.50;;
35644;SDS011;21764;52.042;6.830;2023-05-29T18:49:58;26.50;;;3.63;;
35644;SDS011;21764;52.042;6.830;2023-05-29T18:55:02;15.98;;;3.47;;
35644;SDS011;21764;52.042;6.830;2023-05-29T19:00:03;18.30;;;4.07;;
35644;SDS011;21764;52.042;6.830;2023-05-29T19:05:05;19.10;;;3.33;;
35644;SDS011;21764;52.042;6.830;2023-05-29T19:10:06;18.60;;;3.60;;
35644;SDS011;21764;52.042;6.830;2023-05-29T19:15:08;22.67;;;4.53;;
35644;SDS011;21764;52.042;6.830;2023-05-29T19:20:10;20.48;;;4.15;;
35644;SDS011;21764;52.042;6.830;2023-05-29T19:25:10;14.52;;;3.38;;
35644;SDS011;21764;52.042;6.830;2023-05-29T19:30:11;25.95;;;3.72;;
35644;SDS011;21764;52.042;6.830;2023-05-29T19:35:14;18.15;;;4.20;;
35644;SDS011;21764;52.042;6.830;2023-05-29T19:40:15;16.50;;;3.03;;
35644;SDS011;21764;52.042;6.830;2023-05-29T19:45:16;18.75;;;3.38;;
35644;SDS011;21764;52.042;6.830;2023-05-29T19:50:17;25.00;;;3.70;;
35644;SDS011;21764;52.042;6.830;2023-05-29T19:55:19;17.67;;;4.20;;
35644;SDS011;21764;52.042;6.830;2023-05-29T20:00:21;21.75;;;4.43;;
35644;SDS011;21764;52.042;6.830;2023-05-29T20:05:21;22.52;;;3.90;;
35644;SDS011;21764;52.042;6.830;2023-05-29T20:10:22;21.92;;;3.70;;
35644;SDS011;21764;52.042;6.830;2023-05-29T20:15:23;18.38;;;3.45;;
35644;SDS011;21764;52.042;6.830;2023-05-29T20:20:24;18.63;;;3.13;;
35644;SDS011;21764;52.042;6.830;2023-05-29T20:25:24;20.13;;;4.00;;
35644;SDS011;21764;52.042;6.830;2023-05-29T20:30:26;22.67;;;3.63;;
35644;SDS011;21764;52.042;6.830;2023-05-29T20:35:27;21.42;;;4.10;;
35644;SDS011;21764;52.042;6.830;2023-05-29T20:40:28;20.42;;;4.03;;
35644;SDS011;21764;52.042;6.830;2023-05-29T20:45:29;16.65;;;3.00;;
35644;SDS011;21764;52.042;6.830;2023-05-29T20:50:31;22.23;;;4.22;;
35644;SDS011;21764;52.042;6.830;2023-05-29T20:55:31;21.05;;;3.60;;
35644;SDS011;21764;52.042;6.830;2023-05-29T21:00:32;20.55;;;4.35;;
35644;SDS011;21764;52.042;6.830;2023-05-29T21:05:33;23.27;;;3.38;;
35644;SDS011;21764;52.042;6.830;2023-05-29T21:10:35;29.02;;;4.03;;
35644;SDS011;21764;52.042;6.830;2023-05-29T21:15:35;24.58;;;3.72;;
35644;SDS011;21764;52.042;6.830;2023-05-29T21:20:36;20.10;;;3.58;;
35644;SDS011;21764;52.042;6.830;2023-05-29T21:25:37;26.55;;;3.95;;
35644;SDS011;21764;52.042;6.830;2023-05-29T21:30:37;30.20;;;4.95;;
35644;SDS011;21764;52.042;6.830;2023-05-29T21:35:38;22.35;;;3.75;;
35644;SDS011;21764;52.042;6.830;2023-05-29T21:40:40;25.10;;;4.25;;
35644;SDS011;21764;52.042;6.830;2023-05-29T21:45:41;26.77;;;4.68;;
35644;SDS011;21764;52.042;6.830;2023-05-29T21:50:43;24.73;;;5.35;;
35644;SDS011;21764;52.042;6.830;2023-05-29T21:55:45;21.05;;;3.90;;
35644;SDS011;21764;52.042;6.830;2023-05-29T22:00:46;24.65;;;4.60;;
35644;SDS011;21764;52.042;6.830;2023-05-29T22:05:47;29.33;;;4.30;;
35644;SDS011;21764;52.042;6.830;2023-05-29T22:10:48;28.27;;;4.72;;
35644;SDS011;21764;52.042;6.830;2023-05-29T22:15:48;19.50;;;3.92;;
35644;SDS011;21764;52.042;6.830;2023-05-29T22:20:49;27.40;;;5.28;;
35644;SDS011;21764;52.042;6.830;2023-05-29T22:25:50;28.80;;;5.75;;
35644;SDS011;21764;52.042;6.830;2023-05-29T22:30:52;32.42;;;5.57;;
35644;SDS011;21764;52.042;6.830;2023-05-29T22:35:53;31.42;;;4.20;;
35644;SDS011;21764;52.042;6.830;2023-05-29T22:40:54;22.88;;;3.88;;
35644;SDS011;21764;52.042;6.830;2023-05-29T22:45:56;33.15;;;4.38;;
35644;SDS011;21764;52.042;6.830;2023-05-29T22:50:57;28.55;;;5.25;;
35644;SDS011;21764;52.042;6.830;2023-05-29T22:55:58;35.42;;;5.43;;
35644;SDS011;21764;52.042;6.830;2023-05-29T23:00:59;26.70;;;5.00;;
35644;SDS011;21764;52.042;6.830;2023-05-29T23:06:00;27.90;;;4.45;;
35644;SDS011;21764;52.042;6.830;2023-05-29T23:11:02;29.40;;;5.50;;
35644;SDS011;21764;52.042;6.830;2023-05-29T23:16:03;27.42;;;4.82;;
35644;SDS011;21764;52.042;6.830;2023-05-29T23:21:04;22.02;;;4.05;;
35644;SDS011;21764;52.042;6.830;2023-05-29T23:26:06;33.13;;;5.60;;
35644;SDS011;21764;52.042;6.830;2023-05-29T23:31:07;45.33;;;6.13;;
35644;SDS011;21764;52.042;6.830;2023-05-29T23:36:09;39.58;;;6.60;;
35644;SDS011;21764;52.042;6.830;2023-05-29T23:41:10;32.75;;;5.10;;
35644;SDS011;21764;52.042;6.830;2023-05-29T23:46:11;35.47;;;5.43;;
35644;SDS011;21764;52.042;6.830;2023-05-29T23:51:15;29.92;;;5.78;;
35644;SDS011;21764;52.042;6.830;2023-05-29T23:56:16;38.55;;;5.85;;
